Time;durP1;ratioP1;P1;durP2;ratioP2;P2;SDS_P1;SDS_P2;PMS_P1;PMS_P2;Temp;Humidity;BMP_temperature;BMP_pressure;BME280_temperature;BME280_humidity;BME280_pressure;Samples;Min_cycle;Max_cycle;Signal;HPM_P1;HPM_P2
2023/03/23 00:00:56;;;;;;;17.95;13.73;;;;;;;8.79;100.00;100623.88;5022112;28;20033;-72
2023/03/23 00:03:22;;;;;;;22.30;14.20;;;;;;;8.77;100.00;100620.56;5029686;28;20410;-73
2023/03/23 00:05:51;;;;;;;19.75;14.23;;;;;;;8.76;100.00;100618.94;5026186;28;20025;-72
2023/03/23 00:08:20;;;;;;;17.88;13.52;;;;;;;8.77;100.00;100614.56;5028208;28;20486;-73
2023/03/23 00:10:56;;;;;;;20.25;13.63;;;;;;;8.73;100.00;100623.56;5036852;28;20037;-73
2023/03/23 00:13:25;;;;;;;;;;;;;;;8.66;100.00;100615.44;5026254;28;20454;-73
2023/03/23 00:15:53;;;;;;;18.55;13.98;;;;;;;8.71;100.00;100617.66;5025174;28;20013;-72
2023/03/23 00:18:23;;;;;;;19.58;13.98;;;;;;;8.74;100.00;100617.41;5030092;28;20080;-72
2023/03/23 00:20:53;;;;;;;17.60;12.45;;;;;;;8.76;99.97;100618.09;5026986;28;20060;-73
2023/03/23 00:23:21;;;;;;;20.20;13.93;;;;;;;8.73;100.00;100614.00;5014524;28;20034;-73
2023/03/23 00:25:48;;;;;;;17.30;13.07;;;;;;;8.68;100.00;100608.34;5026574;28;20075;-73
2023/03/23 00:28:15;;;;;;;18.00;13.60;;;;;;;8.67;100.00;100603.28;5031772;28;20033;-73
2023/03/23 00:30:41;;;;;;;20.10;14.55;;;;;;;8.63;100.00;100606.16;5028894;28;20115;-73
2023/03/23 00:33:08;;;;;;;18.85;13.45;;;;;;;8.61;100.00;100609.81;5027076;28;20038;-72
2023/03/23 00:35:35;;;;;;;20.00;14.18;;;;;;;8.67;100.00;100606.72;5029634;28;20379;-72
2023/03/23 00:38:01;;;;;;;23.75;13.75;;;;;;;8.81;99.67;100606.38;5013457;28;20491;-73
2023/03/23 00:40:27;;;;;;;21.20;13.07;;;;;;;9.11;96.94;100596.91;5033667;28;20103;-72
2023/03/23 00:42:53;;;;;;;20.40;12.68;;;;;;;9.38;94.47;100594.53;5028770;28;20030;-73
2023/03/23 00:45:18;;;;;;;21.92;14.00;;;;;;;9.22;95.56;100594.22;5018398;28;20045;-73
2023/03/23 00:47:46;;;;;;;21.40;15.07;;;;;;;9.05;97.05;100594.84;5021387;28;20513;-73
2023/03/23 00:50:13;;;;;;;24.67;14.98;;;;;;;8.96;97.41;100592.09;5028124;28;20034;-73
2023/03/23 00:52:40;;;;;;;22.20;14.95;;;;;;;8.85;98.18;100591.34;5022152;28;20037;-72
2023/03/23 00:55:06;;;;;;;22.98;15.27;;;;;;;8.90;98.11;100587.41;5013086;28;20483;-73
2023/03/23 00:57:32;;;;;;;23.13;15.68;;;;;;;8.88;97.86;100584.13;5027428;28;20112;-73
2023/03/23 00:59:57;;;;;;;22.30;13.40;;;;;;;8.75;98.25;100588.72;5028672;28;20059;-73
2023/03/23 01:02:24;;;;;;;23.75;15.10;;;;;;;8.64;99.12;100592.22;5026033;28;20524;-73
2023/03/23 01:04:52;;;;;;;21.95;14.90;;;;;;;8.56;100.00;100599.00;5029561;28;20048;-73
2023/03/23 01:07:18;;;;;;;22.08;13.57;;;;;;;8.51;100.00;100590.75;5026993;28;20065;-73
2023/03/23 01:09:44;;;;;;;20.38;14.55;;;;;;;8.48;100.00;100594.47;5033697;28;20041;-73
2023/03/23 01:12:11;;;;;;;17.88;13.75;;;;;;;8.47;100.00;100589.41;5022430;28;20394;-73
2023/03/23 01:14:36;;;;;;;16.17;11.88;;;;;;;8.46;100.00;100591.16;5023873;28;20160;-73
2023/03/23 01:17:02;;;;;;;17.15;11.32;;;;;;;8.46;100.00;100588.56;5019698;28;20114;-73
2023/03/23 01:19:28;;;;;;;16.52;12.77;;;;;;;8.47;100.00;100594.59;5020582;28;20037;-73
2023/03/23 01:21:53;;;;;;;20.02;12.77;;;;;;;8.44;100.00;100589.66;5029937;28;20475;-73
2023/03/23 01:24:19;;;;;;;17.50;12.85;;;;;;;8.39;100.00;100597.00;5034108;28;20124;-73
2023/03/23 01:26:44;;;;;;;19.20;12.20;;;;;;;8.36;100.00;100584.25;5033576;28;20116;-73
2023/03/23 01:29:10;;;;;;;16.23;10.55;;;;;;;8.35;100.00;100587.81;5028452;28;20041;-73
2023/03/23 01:31:36;;;;;;;15.65;12.32;;;;;;;8.32;100.00;100581.94;5026811;28;20060;-73
2023/03/23 01:34:03;;;;;;;17.17;12.63;;;;;;;8.27;100.00;100576.25;5027004;28;20061;-73
2023/03/23 01:36:32;;;;;;;16.40;11.73;;;;;;;8.25;100.00;100574.75;5032269;28;20445;-72
2023/03/23 01:39:00;;;;;;;17.45;11.25;;;;;;;8.22;100.00;100581.00;5029922;28;20095;-73
2023/03/23 01:41:26;;;;;;;14.80;11.48;;;;;;;8.19;100.00;100573.47;5027292;28;20040;-72
2023/03/23 01:44:04;;;;;;;14.75;10.90;;;;;;;8.18;100.00;100576.19;5023545;28;20479;-73
2023/03/23 01:46:31;;;;;;;20.67;12.38;;;;;;;8.16;100.00;100567.69;5027701;28;20561;-73
2023/03/23 01:49:06;;;;;;;15.20;11.48;;;;;;;8.11;100.00;100569.84;5025453;28;20753;-73
2023/03/23 01:51:34;;;;;;;17.52;12.32;;;;;;;8.05;100.00;100565.97;5027441;28;20033;-73
2023/03/23 01:54:03;;;;;;;15.13;11.77;;;;;;;8.02;100.00;100561.06;5020535;28;20038;-72
2023/03/23 01:56:37;;;;;;;18.77;12.27;;;;;;;7.97;100.00;100552.84;5014688;28;20036;-72
2023/03/23 01:59:04;;;;;;;17.77;11.27;;;;;;;7.96;100.00;100546.84;5025941;28;20040;-73
2023/03/23 02:01:29;;;;;;;16.88;12.55;;;;;;;7.97;100.00;100547.66;5028612;28;20166;-73
2023/03/23 02:03:56;;;;;;;14.57;11.40;;;;;;;7.96;100.00;100551.19;5029010;28;20409;-73
2023/03/23 02:06:23;;;;;;;16.65;12.90;;;;;;;7.93;100.00;100546.25;5015353;28;20083;-72
2023/03/23 02:08:50;;;;;;;20.63;13.77;;;;;;;7.94;100.00;100553.09;5024971;28;20033;-73
2023/03/23 02:11:20;;;;;;;15.43;12.15;;;;;;;7.93;100.00;100546.25;5025174;28;21537;-72
2023/03/23 02:13:47;;;;;;;18.15;12.27;;;;;;;7.89;100.00;100539.66;5029913;28;20474;-74
2023/03/23 02:16:34;;;;;;;19.77;11.38;;;;;;;7.87;100.00;100539.78;5018094;28;20041;-74
2023/03/23 02:19:26;;;;;;;16.70;11.50;;;;;;;7.83;100.00;100542.75;5025485;28;20041;-73
2023/03/23 02:21:57;;;;;;;17.42;12.70;;;;;;;7.92;100.00;100544.59;5026210;28;20509;-73
2023/03/23 02:24:53;;;;;;;14.93;12.02;;;;;;;8.32;100.00;100550.78;5010377;28;20053;-73
2023/03/23 02:27:40;;;;;;;21.75;11.48;;;;;;;8.28;100.00;100541.56;5027854;28;20033;-73
2023/03/23 02:30:06;;;;;;;;;;;;;;;8.41;100.00;100541.41;5029638;28;20131;-74
2023/03/23 02:33:02;;;;;;;17.90;11.50;;;;;;;8.36;99.47;100543.56;5024979;28;20012;-73
2023/03/23 02:35:38;;;;;;;19.95;11.48;;;;;;;8.48;99.22;100536.50;5023067;28;20041;-73
2023/03/23 02:38:14;;;;;;;16.02;12.30;;;;;;;8.39;99.21;100539.88;5019276;28;20025;-73
2023/03/23 02:40:42;;;;;;;;;;;;;;;8.55;99.91;100532.41;5032750;28;20033;-73
2023/03/23 02:43:12;;;;;;;17.83;13.13;;;;;;;8.70;98.06;100532.91;5032002;28;20370;-73
2023/03/23 02:45:38;;;;;;;17.65;13.40;;;;;;;8.83;97.31;100533.50;5028615;28;20386;-73
2023/03/23 02:48:06;;;;;;;21.33;13.35;;;;;;;8.85;97.22;100535.03;5032592;28;20175;-73
2023/03/23 02:50:33;;;;;;;20.90;14.75;;;;;;;8.88;97.15;100533.94;5029690;28;20106;-73
2023/03/23 02:53:00;;;;;;;16.90;12.65;;;;;;;8.83;97.33;100536.94;5029322;28;20033;-73
2023/03/23 02:55:29;;;;;;;17.30;12.57;;;;;;;8.91;97.06;100528.47;5027543;28;20041;-73
2023/03/23 02:57:55;;;;;;;19.73;12.05;;;;;;;9.04;96.79;100523.84;5024141;28;20033;-74
2023/03/23 03:00:23;;;;;;;18.83;12.98;;;;;;;9.14;96.09;100534.25;5018796;28;20044;-73
2023/03/23 03:02:55;;;;;;;15.57;12.30;;;;;;;9.18;95.84;100533.03;5047810;28;20045;-73
2023/03/23 03:05:29;;;;;;;14.85;12.13;;;;;;;9.19;95.67;100529.50;5026721;28;20105;-73
2023/03/23 03:07:57;;;;;;;17.55;11.70;;;;;;;9.18;95.53;100531.28;5029033;28;20029;-74
2023/03/23 03:10:42;;;;;;;17.27;12.40;;;;;;;9.09;95.83;100528.63;5026062;28;20045;-73
2023/03/23 03:13:25;;;;;;;18.25;12.60;;;;;;;9.09;95.59;100532.06;5017456;28;20103;-74
2023/03/23 03:16:05;;;;;;;15.52;11.40;;;;;;;9.11;95.74;100534.53;5023587;28;20038;-74
2023/03/23 03:18:38;;;;;;;20.83;12.52;;;;;;;9.15;95.80;100536.72;5018271;28;20125;-72
2023/03/23 03:21:08;;;;;;;17.75;13.07;;;;;;;9.14;96.12;100535.09;4992903;28;20436;-73
2023/03/23 03:23:36;;;;;;;17.52;12.00;;;;;;;9.17;96.27;100528.81;5026652;28;20386;-73
2023/03/23 03:26:04;;;;;;;19.80;12.15;;;;;;;9.15;96.32;100530.72;5033667;28;20517;-73
2023/03/23 03:28:32;;;;;;;16.13;12.27;;;;;;;9.14;96.48;100531.66;5031747;28;20060;-73
2023/03/23 03:31:01;;;;;;;17.10;12.65;;;;;;;9.18;96.01;100526.06;5015354;28;20120;-74
2023/03/23 03:33:30;;;;;;;18.83;13.43;;;;;;;9.23;95.95;100525.66;5008448;28;20042;-73
2023/03/23 03:36:00;;;;;;;17.30;12.82;;;;;;;9.21;96.01;100524.97;5032445;28;20030;-74
2023/03/23 03:38:27;;;;;;;15.35;12.60;;;;;;;9.20;96.28;100523.34;5030556;28;20377;-73
2023/03/23 03:40:53;;;;;;;20.02;13.63;;;;;;;9.16;96.75;100529.75;5030450;28;20030;-73
2023/03/23 03:43:19;;;;;;;17.55;12.57;;;;;;;9.15;96.25;100531.53;5029505;28;20048;-73
2023/03/23 03:45:44;;;;;;;18.98;13.35;;;;;;;9.14;95.97;100532.50;5028958;28;20033;-73
2023/03/23 03:48:11;;;;;;;16.85;13.13;;;;;;;9.13;95.81;100537.81;5032296;28;20037;-73
2023/03/23 03:50:36;;;;;;;20.08;13.60;;;;;;;9.09;95.94;100531.25;5031708;28;20038;-73
2023/03/23 03:53:02;;;;;;;18.83;13.05;;;;;;;9.08;95.81;100535.63;5033218;28;20080;-73
2023/03/23 03:55:28;;;;;;;19.67;13.63;;;;;;;9.10;95.35;100538.09;5033080;28;20025;-74
2023/03/23 03:57:55;;;;;;;20.80;14.32;;;;;;;9.07;95.33;100541.78;5031051;28;20041;-73
2023/03/23 04:00:21;;;;;;;21.45;13.30;;;;;;;9.02;95.73;100540.53;5031449;28;20029;-73
2023/03/23 04:02:50;;;;;;;15.88;12.43;;;;;;;8.93;96.27;100536.97;5030376;28;20072;-73
2023/03/23 04:05:17;;;;;;;21.88;12.45;;;;;;;8.93;96.29;100544.75;5030766;28;20033;-73
2023/03/23 04:07:42;;;;;;;17.52;13.40;;;;;;;8.95;96.13;100543.69;5041039;28;20482;-73
2023/03/23 04:10:09;;;;;;;16.73;12.82;;;;;;;8.96;96.17;100547.09;5013411;28;20095;-73
2023/03/23 04:12:36;;;;;;;17.30;11.63;;;;;;;8.85;96.03;100539.41;5027557;28;20128;-74
2023/03/23 04:15:02;;;;;;;15.90;11.07;;;;;;;8.75;96.41;100544.53;5029691;28;20041;-73
2023/03/23 04:17:27;;;;;;;14.55;10.95;;;;;;;8.70;96.57;100540.69;5059888;28;20063;-73
2023/03/23 04:19:56;;;;;;;14.07;10.45;;;;;;;8.62;96.72;100544.75;5031348;28;20059;-73
2023/03/23 04:22:29;;;;;;;15.55;11.70;;;;;;;8.52;97.54;100543.06;5029680;28;20033;-74
2023/03/23 04:24:58;;;;;;;15.73;11.05;;;;;;;8.41;98.05;100545.75;5028975;28;20064;-74
2023/03/23 04:27:24;;;;;;;15.27;10.40;;;;;;;8.24;98.76;100549.72;5032542;28;20040;-73
2023/03/23 04:29:50;;;;;;;17.48;11.68;;;;;;;8.14;99.11;100547.06;5031972;28;20551;-73
2023/03/23 04:32:17;;;;;;;15.35;11.18;;;;;;;8.21;99.09;100545.63;5027606;28;20037;-73
2023/03/23 04:34:43;;;;;;;17.35;11.90;;;;;;;8.22;99.15;100547.25;5031711;28;20521;-74
2023/03/23 04:37:09;;;;;;;14.50;10.98;;;;;;;8.31;98.77;100543.91;5029825;28;20419;-74
2023/03/23 04:39:35;;;;;;;19.67;11.68;;;;;;;8.35;98.46;100547.09;5028904;28;20099;-73
2023/03/23 04:42:01;;;;;;;17.15;11.80;;;;;;;8.40;98.25;100550.13;5034402;28;20068;-74
2023/03/23 04:44:28;;;;;;;16.35;12.65;;;;;;;8.52;97.55;100543.06;5032819;28;20076;-73
2023/03/23 04:46:53;;;;;;;18.50;12.68;;;;;;;8.63;97.15;100540.38;5028998;28;20025;-73
2023/03/23 04:49:20;;;;;;;15.20;11.52;;;;;;;8.67;97.13;100544.38;5029301;28;20025;-73
2023/03/23 04:51:47;;;;;;;18.55;12.60;;;;;;;8.69;96.84;100547.66;5028510;28;20070;-73
2023/03/23 04:54:12;;;;;;;14.18;11.68;;;;;;;8.74;96.32;100549.88;5018806;28;20041;-73
2023/03/23 04:56:38;;;;;;;17.15;11.80;;;;;;;8.75;96.16;100554.13;5034433;28;20021;-74
2023/03/23 04:59:06;;;;;;;18.42;12.45;;;;;;;8.77;96.50;100557.41;5027136;28;20055;-73
2023/03/23 05:01:33;;;;;;;19.30;13.82;;;;;;;8.76;97.01;100556.59;5032401;28;20470;-73
2023/03/23 05:04:00;;;;;;;23.08;16.17;;;;;;;8.76;98.07;100554.00;5026462;28;20056;-73
2023/03/23 05:06:25;;;;;;;18.60;14.27;;;;;;;8.78;98.18;100562.47;5022671;28;20485;-74
2023/03/23 05:08:51;;;;;;;19.40;14.68;;;;;;;8.75;98.28;100565.34;5026674;28;20033;-73
2023/03/23 05:11:16;;;;;;;20.48;14.27;;;;;;;8.72;98.44;100565.59;5023120;28;20029;-73
2023/03/23 05:13:44;;;;;;;18.35;14.13;;;;;;;8.71;98.25;100570.91;5029246;28;20030;-72
2023/03/23 05:16:09;;;;;;;20.33;12.88;;;;;;;8.75;97.67;100561.91;5025067;28;20509;-73
2023/03/23 05:18:35;;;;;;;16.77;12.93;;;;;;;8.78;97.74;100569.44;5027694;28;20036;-74
2023/03/23 05:21:01;;;;;;;17.17;12.32;;;;;;;8.83;97.13;100567.28;5029057;28;20441;-74
2023/03/23 05:23:27;;;;;;;20.58;12.77;;;;;;;8.82;96.79;100563.03;5027440;28;20032;-73
2023/03/23 05:26:00;;;;;;;18.33;11.63;;;;;;;8.84;96.31;100567.16;5020642;28;20566;-73
2023/03/23 05:28:26;;;;;;;16.80;11.57;;;;;;;8.86;96.09;100573.03;5023877;28;20030;-73
2023/03/23 05:30:53;;;;;;;15.02;11.82;;;;;;;8.81;96.61;100576.97;5020338;28;20150;-73
2023/03/23 05:33:19;;;;;;;16.85;11.55;;;;;;;8.63;97.39;100580.16;5017604;28;20913;-73
2023/03/23 05:35:48;;;;;;;18.23;13.57;;;;;;;8.44;98.76;100584.47;5017324;28;20155;-73
2023/03/23 05:38:16;;;;;;;19.85;14.63;;;;;;;8.25;99.67;100590.31;5016535;28;20029;-73
2023/03/23 05:40:42;;;;;;;18.20;12.73;;;;;;;8.23;100.00;100590.44;5020249;28;20026;-73
2023/03/23 05:43:08;;;;;;;33.88;13.38;;;;;;;8.41;98.99;100595.91;5020591;28;20025;-73
2023/03/23 05:45:34;;;;;;;21.27;14.23;;;;;;;8.56;98.10;100597.22;5023371;28;20497;-73
2023/03/23 05:48:00;;;;;;;24.08;14.52;;;;;;;8.74;97.44;100596.63;5015337;28;20038;-72
2023/03/23 05:50:27;;;;;;;20.40;14.20;;;;;;;8.88;96.98;100604.09;5020721;28;20084;-73
2023/03/23 05:52:55;;;;;;;21.58;14.50;;;;;;;9.04;96.50;100603.59;5024581;28;20104;-73
2023/03/23 05:55:20;;;;;;;16.58;12.45;;;;;;;9.11;95.98;100607.31;5015587;28;20137;-74
2023/03/23 05:57:46;;;;;;;16.95;11.88;;;;;;;9.17;95.74;100611.97;5017053;28;20493;-73
2023/03/23 06:00:14;;;;;;;22.45;13.25;;;;;;;9.23;95.34;100609.69;5018620;28;20025;-73
2023/03/23 06:02:43;;;;;;;22.50;14.75;;;;;;;9.36;94.67;100606.84;5025516;28;20033;-73
2023/03/23 06:05:10;;;;;;;18.23;13.02;;;;;;;9.49;94.13;100610.00;5019926;28;20410;-73
2023/03/23 06:07:36;;;;;;;17.80;12.52;;;;;;;9.61;93.43;100616.75;5022063;28;20037;-72
2023/03/23 06:10:02;;;;;;;16.35;12.10;;;;;;;9.73;92.87;100614.03;5016398;28;20391;-73
2023/03/23 06:12:27;;;;;;;18.90;12.57;;;;;;;9.84;91.44;100616.50;5018254;28;20032;-73
2023/03/23 06:14:53;;;;;;;15.85;12.15;;;;;;;9.91;91.51;100615.81;5017803;28;20226;-75
2023/03/23 06:17:18;;;;;;;19.38;14.30;;;;;;;9.99;91.42;100615.94;5014928;28;20147;-75
2023/03/23 06:19:49;;;;;;;22.23;15.13;;;;;;;10.12;91.48;100609.66;5048247;28;20045;-74
2023/03/23 06:22:15;;;;;;;20.83;15.13;;;;;;;10.16;91.18;100622.25;5024134;28;20045;-75
2023/03/23 06:24:41;;;;;;;21.27;15.50;;;;;;;10.21;90.91;100620.09;5015192;28;20033;-75
2023/03/23 06:27:08;;;;;;;19.70;13.88;;;;;;;10.23;91.17;100623.38;5021878;28;20046;-74
2023/03/23 06:29:34;;;;;;;22.15;14.32;;;;;;;10.30;90.75;100632.28;5016837;28;20038;-75
2023/03/23 06:32:02;;;;;;;21.10;14.43;;;;;;;10.40;90.35;100626.25;5023840;28;20038;-75
2023/03/23 06:34:28;;;;;;;20.65;13.48;;;;;;;10.51;89.96;100631.28;5024233;28;20040;-75
2023/03/23 06:36:53;;;;;;;17.98;14.68;;;;;;;10.56;90.03;100635.09;5026963;28;20112;-71
2023/03/23 06:39:19;;;;;;;19.88;13.63;;;;;;;10.67;89.42;100641.94;5025789;28;20033;-71
2023/03/23 06:41:45;;;;;;;18.88;14.30;;;;;;;10.73;88.67;100637.97;5025256;28;20144;-71
2023/03/23 06:44:13;;;;;;;22.38;14.15;;;;;;;10.76;88.69;100635.91;5025741;28;20025;-71
2023/03/23 06:46:39;;;;;;;18.13;14.10;;;;;;;10.74;88.54;100642.22;5020429;28;20065;-71
2023/03/23 06:49:05;;;;;;;19.63;14.73;;;;;;;10.74;88.92;100637.00;5017207;28;20045;-71
2023/03/23 06:51:31;;;;;;;21.23;15.02;;;;;;;10.75;88.77;100639.47;5021749;28;20071;-72
2023/03/23 06:53:57;;;;;;;18.50;14.13;;;;;;;10.77;88.88;100632.31;5016793;28;20159;-71
2023/03/23 06:56:23;;;;;;;17.77;14.10;;;;;;;10.78;88.15;100633.97;5022732;28;20036;-72
2023/03/23 06:58:48;;;;;;;19.67;13.85;;;;;;;10.80;88.37;100634.66;5022310;28;20029;-72
2023/03/23 07:01:14;;;;;;;20.25;16.15;;;;;;;10.80;88.29;100637.25;5022070;28;20045;-72
2023/03/23 07:03:41;;;;;;;23.52;15.75;;;;;;;10.82;88.63;100645.75;5022918;28;20045;-71
2023/03/23 07:06:07;;;;;;;20.02;14.95;;;;;;;10.85;88.59;100642.06;5023787;28;20390;-70
2023/03/23 07:08:33;;;;;;;17.60;14.07;;;;;;;10.94;88.40;100643.78;5026759;28;20510;-70
2023/03/23 07:10:58;;;;;;;20.55;14.55;;;;;;;11.04;87.57;100646.34;5032000;28;20033;-70
2023/03/23 07:13:25;;;;;;;20.25;14.90;;;;;;;11.18;86.64;100645.91;5022076;28;20342;-70
2023/03/23 07:15:50;;;;;;;16.48;13.35;;;;;;;11.30;85.98;100648.19;5045648;28;20053;-70
2023/03/23 07:18:16;;;;;;;22.27;15.38;;;;;;;11.42;85.69;100656.59;5017131;28;20170;-70
2023/03/23 07:20:42;;;;;;;17.60;14.13;;;;;;;11.50;85.03;100669.75;5019880;28;20479;-70
2023/03/23 07:23:08;;;;;;;19.67;15.10;;;;;;;11.64;85.15;100663.22;5021295;28;20067;-70
2023/03/23 07:25:34;;;;;;;26.75;17.45;;;;;;;11.77;84.51;100657.69;5017791;28;20084;-70
2023/03/23 07:28:03;;;;;;;18.77;15.27;;;;;;;11.89;84.08;100665.13;5032841;28;20033;-70
2023/03/23 07:30:29;;;;;;;21.63;15.20;;;;;;;11.97;83.84;100664.41;5023475;28;20391;-70
2023/03/23 07:32:56;;;;;;;20.77;16.40;;;;;;;11.98;83.19;100663.44;5028649;28;20034;-70
2023/03/23 07:35:22;;;;;;;23.63;15.70;;;;;;;12.04;83.16;100659.41;5017927;28;20034;-70
2023/03/23 07:37:51;;;;;;;22.40;15.50;;;;;;;12.14;82.90;100666.22;5024026;28;20160;-70
2023/03/23 07:40:18;;;;;;;20.88;15.65;;;;;;;12.25;82.17;100658.16;5022662;28;20057;-70
2023/03/23 07:42:53;;;;;;;19.83;14.30;;;;;;;12.43;80.44;100662.50;5026824;28;20036;-70
2023/03/23 07:45:18;;;;;;;22.08;14.60;;;;;;;12.59;80.96;100657.41;5021511;28;20029;-70
2023/03/23 07:47:43;;;;;;;21.88;13.27;;;;;;;12.67;80.51;100657.47;5028561;28;20044;-70
2023/03/23 07:50:09;;;;;;;15.73;12.35;;;;;;;12.93;78.89;100655.66;5018355;28;20033;-70
2023/03/23 07:52:36;;;;;;;17.33;12.90;;;;;;;13.14;77.70;100654.47;5016181;28;20068;-71
2023/03/23 07:55:03;;;;;;;17.25;11.70;;;;;;;13.38;76.38;100657.19;5023015;28;20041;-70
2023/03/23 07:57:30;;;;;;;17.90;11.63;;;;;;;13.64;75.83;100651.09;5022615;28;20041;-71
2023/03/23 07:59:57;;;;;;;15.88;11.65;;;;;;;13.68;74.97;100657.63;5015634;28;20478;-71
2023/03/23 08:02:23;;;;;;;15.02;10.15;;;;;;;13.74;74.80;100655.16;5018777;28;20048;-71
2023/03/23 08:04:49;;;;;;;18.15;10.73;;;;;;;13.72;74.17;100658.94;5018237;28;20029;-71
2023/03/23 08:07:16;;;;;;;15.38;10.77;;;;;;;13.77;73.24;100652.25;5026280;28;20475;-71
2023/03/23 08:09:42;;;;;;;16.45;11.88;;;;;;;13.98;73.75;100650.97;5016827;28;20731;-71
2023/03/23 08:12:09;;;;;;;21.52;12.60;;;;;;;14.13;73.78;100652.81;5011133;28;20091;-71
2023/03/23 08:14:34;;;;;;;18.95;10.77;;;;;;;14.21;72.95;100658.00;5022798;28;20065;-71
2023/03/23 08:17:00;;;;;;;14.48;10.25;;;;;;;14.17;72.99;100655.91;5020544;28;20088;-71
2023/03/23 08:19:26;;;;;;;17.00;11.18;;;;;;;14.17;72.99;100658.53;5032813;28;20038;-71
2023/03/23 08:21:52;;;;;;;20.67;12.50;;;;;;;14.12;72.73;100658.19;5024400;28;20037;-71
2023/03/23 08:24:18;;;;;;;24.90;11.73;;;;;;;14.24;73.27;100657.69;5031661;28;20651;-71
2023/03/23 08:26:44;;;;;;;25.42;12.43;;;;;;;14.34;72.75;100660.16;5013125;28;20035;-71
2023/03/23 08:29:09;;;;;;;24.58;12.10;;;;;;;14.39;72.11;100651.81;5024083;28;20560;-69
2023/03/23 08:31:35;;;;;;;19.58;11.88;;;;;;;14.42;70.02;100657.56;5021094;28;20080;-71
2023/03/23 08:34:04;;;;;;;20.98;12.18;;;;;;;14.45;70.68;100649.38;5011709;28;20086;-71
2023/03/23 08:36:30;;;;;;;19.00;11.38;;;;;;;14.55;71.31;100657.06;5016362;28;20025;-71
2023/03/23 08:38:55;;;;;;;15.93;11.30;;;;;;;14.55;70.83;100657.06;5015649;28;20139;-71
2023/03/23 08:41:21;;;;;;;18.60;11.55;;;;;;;14.63;70.65;100649.19;5014829;28;20029;-72
2023/03/23 08:43:46;;;;;;;21.20;11.15;;;;;;;14.82;70.94;100648.00;5014930;28;20485;-71
2023/03/23 08:46:12;;;;;;;26.67;11.70;;;;;;;15.18;69.56;100651.81;5026865;28;20041;-72
2023/03/23 08:48:38;;;;;;;18.92;11.00;;;;;;;15.49;68.25;100649.25;5027827;28;20037;-71
2023/03/23 08:51:06;;;;;;;20.90;11.65;;;;;;;15.86;66.98;100658.25;5019043;28;20405;-72
2023/03/23 08:53:32;;;;;;;21.58;11.80;;;;;;;15.88;66.29;100661.50;5023997;28;20026;-72
2023/03/23 08:56:09;;;;;;;44.70;12.57;;;;;;;16.19;63.35;100656.19;5034240;28;20124;-72
2023/03/23 08:58:36;;;;;;;24.05;10.90;;;;;;;16.34;64.95;100651.81;5026897;28;20087;-72
2023/03/23 09:01:03;;;;;;;21.98;11.32;;;;;;;16.65;64.33;100654.34;5019523;28;20044;-72
2023/03/23 09:03:28;;;;;;;17.23;11.73;;;;;;;16.20;64.74;100649.94;5026845;28;20040;-71
2023/03/23 09:05:59;;;;;;;21.50;10.80;;;;;;;16.10;65.77;100650.19;5028194;28;20086;-71
2023/03/23 09:08:25;;;;;;;15.98;10.48;;;;;;;16.15;65.11;100642.59;5016954;28;20071;-69
2023/03/23 09:10:50;;;;;;;15.95;8.65;;;;;;;16.17;64.09;100647.66;5024228;28;20057;-69
2023/03/23 09:13:16;;;;;;;16.15;9.75;;;;;;;16.15;64.45;100644.41;5021971;28;20021;-68
2023/03/23 09:15:42;;;;;;;15.15;9.55;;;;;;;16.20;64.83;100640.25;5028743;28;20350;-69
2023/03/23 09:18:07;;;;;;;12.05;7.70;;;;;;;16.01;63.44;100642.56;5029112;28;20037;-69
2023/03/23 09:20:33;;;;;;;8.82;6.85;;;;;;;15.93;62.24;100648.69;5022251;28;20048;-69
2023/03/23 09:22:59;;;;;;;8.90;5.47;;;;;;;15.96;61.65;100645.69;5022388;28;20122;-69
2023/03/23 09:25:27;;;;;;;7.32;4.78;;;;;;;15.88;59.61;100646.56;5031464;28;20120;-69
2023/03/23 09:27:56;;;;;;;10.50;4.88;;;;;;;15.84;59.83;100649.72;5025809;28;20037;-69
2023/03/23 09:30:23;;;;;;;6.93;4.43;;;;;;;15.85;59.54;100649.53;5026132;28;20103;-69
2023/03/23 09:32:49;;;;;;;10.05;4.18;;;;;;;15.93;60.13;100646.88;5029010;28;20038;-69
2023/03/23 09:35:16;;;;;;;6.20;3.22;;;;;;;15.89;61.56;100647.38;5030811;28;20128;-70
2023/03/23 09:37:43;;;;;;;4.38;3.33;;;;;;;15.84;62.33;100654.97;5026786;28;20478;-69
2023/03/23 09:40:18;;;;;;;7.95;3.05;;;;;;;15.78;62.21;100655.66;5030586;28;20054;-69
2023/03/23 09:43:05;;;;;;;6.10;2.60;;;;;;;15.85;61.51;100654.78;5025603;28;20103;-69
2023/03/23 09:45:37;;;;;;;3.28;2.92;;;;;;;16.08;60.41;100646.09;5030727;28;20041;-69
2023/03/23 09:48:17;;;;;;;5.68;3.03;;;;;;;16.29;59.03;100658.59;5032603;28;20187;-70
2023/03/23 09:50:46;;;;;;;6.70;3.30;;;;;;;16.33;60.86;100649.34;5029747;28;20028;-69
2023/03/23 09:53:20;;;;;;;6.72;3.58;;;;;;;16.25;60.82;100648.41;5029016;28;20032;-69
2023/03/23 09:55:48;;;;;;;7.13;3.75;;;;;;;16.26;59.54;100650.06;5027185;28;20033;-69
2023/03/23 09:58:28;;;;;;;14.50;2.70;;;;;;;16.20;56.23;100645.50;5027904;28;20410;-70
2023/03/23 10:01:13;;;;;;;6.63;2.28;;;;;;;16.27;56.56;100648.25;5027296;28;20397;-69
2023/03/23 10:03:42;;;;;;;9.98;2.00;;;;;;;16.34;58.13;100645.72;5025985;28;20140;-70
2023/03/23 10:06:15;;;;;;;3.13;1.17;;;;;;;16.43;57.71;100648.13;5025959;28;20029;-69
2023/03/23 10:08:48;;;;;;;3.38;1.60;;;;;;;16.35;58.62;100647.38;5026556;28;20443;-70
2023/03/23 10:11:33;;;;;;;3.22;2.00;;;;;;;16.32;58.66;100647.72;5027082;28;20149;-69
2023/03/23 10:14:14;;;;;;;4.53;2.35;;;;;;;16.59;58.25;100633.97;5031428;28;20552;-69
2023/03/23 10:16:59;;;;;;;3.83;1.95;;;;;;;16.68;56.77;100632.94;5024157;28;20044;-69
2023/03/23 10:19:51;;;;;;;5.53;1.77;;;;;;;16.82;56.31;100637.41;5030621;28;20411;-69
2023/03/23 10:22:26;;;;;;;4.78;1.55;;;;;;;16.88;57.10;100634.03;4995922;28;20096;-69
2023/03/23 10:25:12;;;;;;;3.23;1.83;;;;;;;16.86;57.67;100638.66;5020423;28;20455;-69
2023/03/23 10:28:01;;;;;;;3.95;1.63;;;;;;;16.78;57.30;100637.94;5022297;28;20442;-70
2023/03/23 10:30:27;;;;;;;6.20;2.35;;;;;;;16.80;59.42;100628.88;5021049;28;20385;-69
2023/03/23 10:33:31;;;;;;;3.42;2.40;;;;;;;17.02;57.45;100631.56;5017130;28;20056;-70
2023/03/23 10:36:10;;;;;;;4.57;1.77;;;;;;;17.22;57.59;100632.66;5020790;28;20516;-70
2023/03/23 10:38:49;;;;;;;3.05;2.47;;;;;;;17.36;58.00;100626.56;5023082;28;20119;-69
2023/03/23 10:41:18;;;;;;;7.32;2.50;;;;;;;17.42;58.23;100622.38;5020424;28;20064;-70
2023/03/23 10:43:49;;;;;;;6.65;1.95;;;;;;;17.44;58.74;100626.44;5030527;28;20502;-69
2023/03/23 10:46:46;;;;;;;4.68;2.17;;;;;;;17.43;58.57;100621.38;5024254;28;20406;-69
2023/03/23 10:49:14;;;;;;;6.53;1.90;;;;;;;17.37;59.47;100620.28;5022748;28;20021;-69
2023/03/23 10:51:44;;;;;;;5.93;2.45;;;;;;;17.40;59.83;100621.75;5024109;28;20036;-70
2023/03/23 10:54:10;;;;;;;4.55;1.80;;;;;;;17.38;60.10;100618.47;5028271;28;20072;-70
2023/03/23 10:56:41;;;;;;;5.93;1.80;;;;;;;17.38;60.41;100621.91;5032892;28;20061;-70
2023/03/23 10:59:26;;;;;;;3.78;1.70;;;;;;;17.21;60.18;100616.03;5022122;28;20459;-70
2023/03/23 11:01:54;;;;;;;4.28;1.95;;;;;;;17.28;60.45;100623.22;5023295;28;20739;-70
2023/03/23 11:04:22;;;;;;;10.82;2.63;;;;;;;17.32;60.50;100627.09;5021903;28;20490;-70
2023/03/23 11:06:52;;;;;;;9.48;2.40;;;;;;;17.33;60.43;100631.38;5026413;28;20048;-70
2023/03/23 11:09:34;;;;;;;7.72;2.40;;;;;;;17.32;58.90;100620.03;5025315;28;20025;-69
2023/03/23 11:12:00;;;;;;;3.83;1.55;;;;;;;17.28;58.55;100621.38;5032708;28;20029;-69
2023/03/23 11:14:25;;;;;;;4.38;1.35;;;;;;;17.28;58.71;100618.75;5035485;28;20030;-69
2023/03/23 11:16:55;;;;;;;6.90;2.03;;;;;;;17.29;57.97;100619.56;5030338;28;20087;-69
2023/03/23 11:19:26;;;;;;;7.32;2.20;;;;;;;17.25;56.59;100616.50;5030587;28;20041;-69
2023/03/23 11:21:59;;;;;;;8.85;1.95;;;;;;;17.16;57.39;100610.50;5033116;28;20335;-69
2023/03/23 11:24:28;;;;;;;10.07;2.03;;;;;;;17.15;57.43;100614.13;5028718;28;20026;-69